sensor_id;sensor_type;location;lat;lon;timestamp;P1;durP1;ratioP1;P2;durP2;ratioP2
31716;SDS011;18301;51.076;17.046;2023-06-22T00:04:07;16.10;;;13.38;;
31716;SDS011;18301;51.076;17.046;2023-06-22T00:09:08;15.00;;;12.55;;
31716;SDS011;18301;51.076;17.046;2023-06-22T00:14:11;16.33;;;13.63;;
31716;SDS011;18301;51.076;17.046;2023-06-22T00:19:13;14.63;;;12.70;;
31716;SDS011;18301;51.076;17.046;2023-06-22T00:24:14;18.20;;;13.32;;
31716;SDS011;18301;51.076;17.046;2023-06-22T00:29:16;15.70;;;12.60;;
31716;SDS011;18301;51.076;17.046;2023-06-22T00:34:18;18.10;;;13.45;;
31716;SDS011;18301;51.076;17.046;2023-06-22T00:39:19;18.27;;;14.15;;
31716;SDS011;18301;51.076;17.046;2023-06-22T00:44:20;17.95;;;14.38;;
31716;SDS011;18301;51.076;17.046;2023-06-22T00:49:22;17.75;;;13.80;;
31716;SDS011;18301;51.076;17.046;2023-06-22T00:54:24;16.65;;;13.90;;
31716;SDS011;18301;51.076;17.046;2023-06-22T00:59:26;16.67;;;13.55;;
31716;SDS011;18301;51.076;17.046;2023-06-22T01:04:34;16.17;;;13.75;;
31716;SDS011;18301;51.076;17.046;2023-06-22T01:09:39;16.90;;;13.60;;
31716;SDS011;18301;51.076;17.046;2023-06-22T01:14:58;16.65;;;14.07;;
31716;SDS011;18301;51.076;17.046;2023-06-22T01:20:08;17.55;;;13.10;;
31716;SDS011;18301;51.076;17.046;2023-06-22T01:25:13;16.33;;;13.93;;
31716;SDS011;18301;51.076;17.046;2023-06-22T01:30:21;17.35;;;14.32;;
31716;SDS011;18301;51.076;17.046;2023-06-22T01:35:28;19.20;;;14.57;;
31716;SDS011;18301;51.076;17.046;2023-06-22T01:40:30;17.88;;;14.70;;
31716;SDS011;18301;51.076;17.046;2023-06-22T01:45:34;19.52;;;15.40;;
31716;SDS011;18301;51.076;17.046;2023-06-22T01:50:35;25.35;;;14.77;;
31716;SDS011;18301;51.076;17.046;2023-06-22T01:55:37;19.42;;;14.88;;
31716;SDS011;18301;51.076;17.046;2023-06-22T02:00:38;19.20;;;15.30;;
31716;SDS011;18301;51.076;17.046;2023-06-22T02:05:52;16.48;;;14.32;;
31716;SDS011;18301;51.076;17.046;2023-06-22T02:10:57;20.73;;;15.10;;
31716;SDS011;18301;51.076;17.046;2023-06-22T02:16:01;17.15;;;14.65;;
31716;SDS011;18301;51.076;17.046;2023-06-22T02:21:03;17.80;;;14.52;;
31716;SDS011;18301;51.076;17.046;2023-06-22T02:26:05;21.88;;;15.50;;
31716;SDS011;18301;51.076;17.046;2023-06-22T02:31:06;19.20;;;15.23;;
31716;SDS011;18301;51.076;17.046;2023-06-22T02:36:08;21.17;;;15.88;;
31716;SDS011;18301;51.076;17.046;2023-06-22T02:41:10;21.20;;;16.33;;
31716;SDS011;18301;51.076;17.046;2023-06-22T02:46:14;18.83;;;14.90;;
31716;SDS011;18301;51.076;17.046;2023-06-22T02:51:15;18.33;;;15.63;;
31716;SDS011;18301;51.076;17.046;2023-06-22T02:56:17;16.95;;;14.18;;
31716;SDS011;18301;51.076;17.046;2023-06-22T03:01:18;20.00;;;15.98;;
31716;SDS011;18301;51.076;17.046;2023-06-22T03:06:25;20.52;;;15.68;;
31716;SDS011;18301;51.076;17.046;2023-06-22T03:11:33;20.83;;;15.57;;
31716;SDS011;18301;51.076;17.046;2023-06-22T03:16:35;19.30;;;15.75;;
31716;SDS011;18301;51.076;17.046;2023-06-22T03:21:38;20.08;;;16.02;;
31716;SDS011;18301;51.076;17.046;2023-06-22T03:26:40;19.95;;;16.30;;
31716;SDS011;18301;51.076;17.046;2023-06-22T03:31:41;18.63;;;14.85;;
31716;SDS011;18301;51.076;17.046;2023-06-22T03:36:43;20.90;;;15.80;;
31716;SDS011;18301;51.076;17.046;2023-06-22T03:41:46;19.45;;;15.50;;
31716;SDS011;18301;51.076;17.046;2023-06-22T03:46:48;20.48;;;15.82;;
31716;SDS011;18301;51.076;17.046;2023-06-22T03:51:49;18.48;;;15.38;;
31716;SDS011;18301;51.076;17.046;2023-06-22T03:56:51;21.83;;;15.35;;
31716;SDS011;18301;51.076;17.046;2023-06-22T04:01:52;20.33;;;15.57;;
31716;SDS011;18301;51.076;17.046;2023-06-22T04:06:54;24.58;;;15.82;;
31716;SDS011;18301;51.076;17.046;2023-06-22T04:11:55;22.02;;;16.83;;
31716;SDS011;18301;51.076;17.046;2023-06-22T04:16:57;21.30;;;16.20;;
31716;SDS011;18301;51.076;17.046;2023-06-22T04:21:59;21.23;;;16.80;;
31716;SDS011;18301;51.076;17.046;2023-06-22T04:27:01;21.42;;;16.33;;
31716;SDS011;18301;51.076;17.046;2023-06-22T04:32:04;21.25;;;17.25;;
31716;SDS011;18301;51.076;17.046;2023-06-22T04:37:06;21.67;;;17.30;;
31716;SDS011;18301;51.076;17.046;2023-06-22T04:42:08;21.02;;;16.70;;
31716;SDS011;18301;51.076;17.046;2023-06-22T04:47:09;23.98;;;17.65;;
31716;SDS011;18301;51.076;17.046;2023-06-22T04:52:11;22.38;;;17.70;;
31716;SDS011;18301;51.076;17.046;2023-06-22T04:57:14;24.48;;;20.23;;
31716;SDS011;18301;51.076;17.046;2023-06-22T05:02:15;24.67;;;18.77;;
31716;SDS011;18301;51.076;17.046;2023-06-22T05:07:17;27.95;;;18.70;;
31716;SDS011;18301;51.076;17.046;2023-06-22T05:12:18;23.58;;;19.23;;
31716;SDS011;18301;51.076;17.046;2023-06-22T05:17:20;23.55;;;18.98;;
31716;SDS011;18301;51.076;17.046;2023-06-22T05:22:21;25.38;;;20.05;;
31716;SDS011;18301;51.076;17.046;2023-06-22T05:27:23;23.92;;;18.85;;
31716;SDS011;18301;51.076;17.046;2023-06-22T05:32:24;19.98;;;16.20;;
31716;SDS011;18301;51.076;17.046;2023-06-22T05:37:26;22.38;;;16.08;;
31716;SDS011;18301;51.076;17.046;2023-06-22T05:42:28;26.80;;;18.40;;
31716;SDS011;18301;51.076;17.046;2023-06-22T05:47:29;21.92;;;15.77;;
31716;SDS011;18301;51.076;17.046;2023-06-22T05:52:31;18.23;;;14.80;;
31716;SDS011;18301;51.076;17.046;2023-06-22T05:57:32;14.13;;;11.88;;
31716;SDS011;18301;51.076;17.046;2023-06-22T06:02:34;17.23;;;14.55;;
31716;SDS011;18301;51.076;17.046;2023-06-22T06:07:37;14.15;;;12.20;;
31716;SDS011;18301;51.076;17.046;2023-06-22T06:12:38;17.50;;;12.25;;
31716;SDS011;18301;51.076;17.046;2023-06-22T06:17:49;15.27;;;12.63;;
31716;SDS011;18301;51.076;17.046;2023-06-22T06:22:52;16.05;;;12.40;;
31716;SDS011;18301;51.076;17.046;2023-06-22T06:27:54;13.35;;;11.57;;
31716;SDS011;18301;51.076;17.046;2023-06-22T06:32:56;13.82;;;11.60;;
31716;SDS011;18301;51.076;17.046;2023-06-22T06:37:57;15.48;;;12.10;;
31716;SDS011;18301;51.076;17.046;2023-06-22T06:42:59;12.70;;;11.07;;
31716;SDS011;18301;51.076;17.046;2023-06-22T07:04:59;14.75;;;13.05;;
31716;SDS011;18301;51.076;17.046;2023-06-22T07:10:00;14.52;;;12.77;;
31716;SDS011;18301;51.076;17.046;2023-06-22T07:15:07;20.77;;;13.77;;
31716;SDS011;18301;51.076;17.046;2023-06-22T07:20:10;15.27;;;12.88;;
31716;SDS011;18301;51.076;17.046;2023-06-22T07:25:15;15.30;;;13.55;;
31716;SDS011;18301;51.076;17.046;2023-06-22T07:30:18;16.17;;;14.00;;
31716;SDS011;18301;51.076;17.046;2023-06-22T07:35:19;16.52;;;14.10;;
31716;SDS011;18301;51.076;17.046;2023-06-22T07:40:21;14.70;;;12.75;;
31716;SDS011;18301;51.076;17.046;2023-06-22T07:45:22;17.02;;;14.15;;
31716;SDS011;18301;51.076;17.046;2023-06-22T07:50:24;15.65;;;12.93;;
31716;SDS011;18301;51.076;17.046;2023-06-22T07:55:25;20.23;;;14.48;;
31716;SDS011;18301;51.076;17.046;2023-06-22T08:00:27;15.10;;;13.15;;
31716;SDS011;18301;51.076;17.046;2023-06-22T08:05:29;15.57;;;13.13;;
31716;SDS011;18301;51.076;17.046;2023-06-22T08:10:31;19.02;;;15.65;;
31716;SDS011;18301;51.076;17.046;2023-06-22T08:15:33;15.00;;;13.40;;
31716;SDS011;18301;51.076;17.046;2023-06-22T08:20:34;16.05;;;13.05;;
31716;SDS011;18301;51.076;17.046;2023-06-22T08:25:36;15.30;;;13.60;;
31716;SDS011;18301;51.076;17.046;2023-06-22T08:30:37;17.42;;;13.98;;
31716;SDS011;18301;51.076;17.046;2023-06-22T08:35:39;18.15;;;13.85;;
31716;SDS011;18301;51.076;17.046;2023-06-22T08:40:41;15.15;;;13.32;;
31716;SDS011;18301;51.076;17.046;2023-06-22T08:45:42;16.92;;;13.63;;
31716;SDS011;18301;51.076;17.046;2023-06-22T08:50:45;14.75;;;12.65;;
31716;SDS011;18301;51.076;17.046;2023-06-22T08:55:46;15.68;;;13.13;;
31716;SDS011;18301;51.076;17.046;2023-06-22T09:00:48;15.30;;;12.93;;
31716;SDS011;18301;51.076;17.046;2023-06-22T09:05:50;13.73;;;10.80;;
31716;SDS011;18301;51.076;17.046;2023-06-22T09:10:51;16.80;;;12.38;;
31716;SDS011;18301;51.076;17.046;2023-06-22T09:15:53;13.07;;;11.10;;
31716;SDS011;18301;51.076;17.046;2023-06-22T09:20:54;14.90;;;11.55;;
31716;SDS011;18301;51.076;17.046;2023-06-22T09:25:56;10.38;;;9.35;;
31716;SDS011;18301;51.076;17.046;2023-06-22T09:30:57;12.23;;;10.35;;
31716;SDS011;18301;51.076;17.046;2023-06-22T09:36:00;14.07;;;11.55;;
31716;SDS011;18301;51.076;17.046;2023-06-22T09:41:02;12.63;;;11.07;;
31716;SDS011;18301;51.076;17.046;2023-06-22T09:46:04;12.40;;;9.68;;
31716;SDS011;18301;51.076;17.046;2023-06-22T09:51:05;11.18;;;9.65;;
31716;SDS011;18301;51.076;17.046;2023-06-22T09:56:07;11.25;;;10.05;;
31716;SDS011;18301;51.076;17.046;2023-06-22T10:01:12;15.43;;;11.50;;
31716;SDS011;18301;51.076;17.046;2023-06-22T10:06:17;12.98;;;10.27;;
31716;SDS011;18301;51.076;17.046;2023-06-22T10:11:18;11.85;;;10.63;;
31716;SDS011;18301;51.076;17.046;2023-06-22T10:16:20;13.05;;;10.93;;
31716;SDS011;18301;51.076;17.046;2023-06-22T10:21:21;11.38;;;10.20;;
31716;SDS011;18301;51.076;17.046;2023-06-22T10:26:23;11.15;;;9.55;;
31716;SDS011;18301;51.076;17.046;2023-06-22T10:31:24;11.30;;;9.07;;
31716;SDS011;18301;51.076;17.046;2023-06-22T10:36:26;11.38;;;9.57;;
31716;SDS011;18301;51.076;17.046;2023-06-22T10:41:28;10.93;;;9.77;;
31716;SDS011;18301;51.076;17.046;2023-06-22T10:46:31;11.32;;;9.20;;
31716;SDS011;18301;51.076;17.046;2023-06-22T10:51:32;11.57;;;10.38;;
31716;SDS011;18301;51.076;17.046;2023-06-22T10:56:34;13.02;;;10.23;;
31716;SDS011;18301;51.076;17.046;2023-06-22T11:01:36;12.85;;;9.73;;
31716;SDS011;18301;51.076;17.046;2023-06-22T11:06:38;12.82;;;9.88;;
31716;SDS011;18301;51.076;17.046;2023-06-22T11:11:39;11.48;;;9.20;;
31716;SDS011;18301;51.076;17.046;2023-06-22T11:16:41;9.77;;;8.45;;
31716;SDS011;18301;51.076;17.046;2023-06-22T11:21:42;10.00;;;8.93;;
31716;SDS011;18301;51.076;17.046;2023-06-22T11:26:44;11.57;;;10.38;;
31716;SDS011;18301;51.076;17.046;2023-06-22T11:31:45;10.25;;;9.20;;
31716;SDS011;18301;51.076;17.046;2023-06-22T11:36:47;10.27;;;9.05;;
31716;SDS011;18301;51.076;17.046;2023-06-22T11:41:49;10.15;;;8.38;;
31716;SDS011;18301;51.076;17.046;2023-06-22T11:46:51;9.20;;;8.23;;
31716;SDS011;18301;51.076;17.046;2023-06-22T11:51:52;8.20;;;7.35;;
31716;SDS011;18301;51.076;17.046;2023-06-22T11:56:54;9.30;;;8.30;;
31716;SDS011;18301;51.076;17.046;2023-06-22T12:01:56;8.68;;;7.82;;
31716;SDS011;18301;51.076;17.046;2023-06-22T12:06:59;8.38;;;7.57;;
31716;SDS011;18301;51.076;17.046;2023-06-22T12:12:01;8.30;;;7.40;;
31716;SDS011;18301;51.076;17.046;2023-06-22T12:17:02;7.53;;;6.82;;
31716;SDS011;18301;51.076;17.046;2023-06-22T12:22:04;7.95;;;7.00;;
31716;SDS011;18301;51.076;17.046;2023-06-22T12:27:05;7.47;;;6.68;;
31716;SDS011;18301;51.076;17.046;2023-06-22T12:32:07;6.97;;;6.28;;
31716;SDS011;18301;51.076;17.046;2023-06-22T12:37:09;6.75;;;6.07;;
31716;SDS011;18301;51.076;17.046;2023-06-22T12:42:11;6.70;;;6.05;;
31716;SDS011;18301;51.076;17.046;2023-06-22T12:47:13;7.40;;;5.95;;
31716;SDS011;18301;51.076;17.046;2023-06-22T12:52:15;6.30;;;5.47;;
31716;SDS011;18301;51.076;17.046;2023-06-22T12:57:16;6.18;;;5.57;;
31716;SDS011;18301;51.076;17.046;2023-06-22T13:02:18;6.97;;;6.28;;
31716;SDS011;18301;51.076;17.046;2023-06-22T13:07:20;6.57;;;5.93;;
31716;SDS011;18301;51.076;17.046;2023-06-22T13:12:24;9.23;;;6.25;;
31716;SDS011;18301;51.076;17.046;2023-06-22T13:17:25;8.45;;;5.90;;
31716;SDS011;18301;51.076;17.046;2023-06-22T13:22:30;6.40;;;5.70;;
31716;SDS011;18301;51.076;17.046;2023-06-22T13:27:33;8.27;;;6.13;;
31716;SDS011;18301;51.076;17.046;2023-06-22T13:32:35;7.22;;;6.00;;
31716;SDS011;18301;51.076;17.046;2023-06-22T13:37:37;9.35;;;6.50;;
31716;SDS011;18301;51.076;17.046;2023-06-22T13:42:38;6.78;;;6.07;;
31716;SDS011;18301;51.076;17.046;2023-06-22T13:47:40;7.05;;;6.35;;
31716;SDS011;18301;51.076;17.046;2023-06-22T13:52:41;8.30;;;6.72;;
31716;SDS011;18301;51.076;17.046;2023-06-22T13:57:43;7.68;;;6.97;;
31716;SDS011;18301;51.076;17.046;2023-06-22T14:02:44;7.53;;;6.82;;
31716;SDS011;18301;51.076;17.046;2023-06-22T14:07:46;8.30;;;7.50;;
31716;SDS011;18301;51.076;17.046;2023-06-22T14:12:48;8.45;;;7.07;;
31716;SDS011;18301;51.076;17.046;2023-06-22T14:17:49;8.40;;;7.60;;
31716;SDS011;18301;51.076;17.046;2023-06-22T14:22:51;8.68;;;7.43;;
31716;SDS011;18301;51.076;17.046;2023-06-22T14:27:52;8.45;;;7.65;;
31716;SDS011;18301;51.076;17.046;2023-06-22T14:32:54;8.38;;;7.57;;
31716;SDS011;18301;51.076;17.046;2023-06-22T14:37:55;9.23;;;7.53;;
31716;SDS011;18301;51.076;17.046;2023-06-22T14:42:57;8.27;;;7.35;;
31716;SDS011;18301;51.076;17.046;2023-06-22T14:47:58;8.70;;;7.40;;
31716;SDS011;18301;51.076;17.046;2023-06-22T14:53:00;9.25;;;7.93;;
31716;SDS011;18301;51.076;17.046;2023-06-22T14:58:01;8.07;;;7.32;;
31716;SDS011;18301;51.076;17.046;2023-06-22T15:03:04;9.88;;;6.90;;
31716;SDS011;18301;51.076;17.046;2023-06-22T15:08:08;9.38;;;7.18;;
31716;SDS011;18301;51.076;17.046;2023-06-22T15:13:12;8.07;;;7.28;;
31716;SDS011;18301;51.076;17.046;2023-06-22T15:18:14;8.27;;;6.97;;
31716;SDS011;18301;51.076;17.046;2023-06-22T15:23:16;7.28;;;6.22;;
31716;SDS011;18301;51.076;17.046;2023-06-22T15:28:18;8.52;;;7.00;;
31716;SDS011;18301;51.076;17.046;2023-06-22T15:33:19;7.40;;;6.70;;
31716;SDS011;18301;51.076;17.046;2023-06-22T15:38:21;9.60;;;7.20;;
31716;SDS011;18301;51.076;17.046;2023-06-22T15:43:22;8.25;;;7.40;;
31716;SDS011;18301;51.076;17.046;2023-06-22T15:48:24;7.13;;;6.38;;
31716;SDS011;18301;51.076;17.046;2023-06-22T15:53:25;7.80;;;7.00;;
31716;SDS011;18301;51.076;17.046;2023-06-22T15:58:27;9.23;;;7.05;;
31716;SDS011;18301;51.076;17.046;2023-06-22T16:03:29;8.32;;;7.43;;
31716;SDS011;18301;51.076;17.046;2023-06-22T16:08:30;10.80;;;7.15;;
31716;SDS011;18301;51.076;17.046;2023-06-22T16:13:34;10.75;;;8.18;;
31716;SDS011;18301;51.076;17.046;2023-06-22T16:18:36;9.13;;;7.15;;
31716;SDS011;18301;51.076;17.046;2023-06-22T16:23:37;7.65;;;6.93;;
31716;SDS011;18301;51.076;17.046;2023-06-22T16:28:39;8.75;;;7.30;;
31716;SDS011;18301;51.076;17.046;2023-06-22T16:33:41;9.48;;;7.10;;
31716;SDS011;18301;51.076;17.046;2023-06-22T16:38:48;9.05;;;7.00;;
31716;SDS011;18301;51.076;17.046;2023-06-22T16:43:51;8.40;;;6.75;;
31716;SDS011;18301;51.076;17.046;2023-06-22T16:48:53;7.53;;;6.72;;
31716;SDS011;18301;51.076;17.046;2023-06-22T16:53:54;8.25;;;7.00;;
31716;SDS011;18301;51.076;17.046;2023-06-22T16:58:59;7.20;;;6.50;;
31716;SDS011;18301;51.076;17.046;2023-06-22T17:04:08;7.38;;;6.68;;
31716;SDS011;18301;51.076;17.046;2023-06-22T17:09:11;9.35;;;7.20;;
31716;SDS011;18301;51.076;17.046;2023-06-22T17:14:15;8.05;;;7.20;;
31716;SDS011;18301;51.076;17.046;2023-06-22T17:19:17;7.38;;;6.13;;
31716;SDS011;18301;51.076;17.046;2023-06-22T17:24:19;8.60;;;7.00;;
31716;SDS011;18301;51.076;17.046;2023-06-22T17:29:27;8.38;;;6.63;;
31716;SDS011;18301;51.076;17.046;2023-06-22T17:34:35;7.57;;;6.78;;
31716;SDS011;18301;51.076;17.046;2023-06-22T17:39:37;7.75;;;6.95;;
31716;SDS011;18301;51.076;17.046;2023-06-22T17:44:39;7.30;;;6.60;;
31716;SDS011;18301;51.076;17.046;2023-06-22T17:49:42;10.18;;;7.32;;
31716;SDS011;18301;51.076;17.046;2023-06-22T17:54:44;8.43;;;6.97;;
31716;SDS011;18301;51.076;17.046;2023-06-22T18:00:06;8.02;;;6.95;;
31716;SDS011;18301;51.076;17.046;2023-06-22T18:05:11;9.27;;;7.00;;
31716;SDS011;18301;51.076;17.046;2023-06-22T18:10:13;7.57;;;6.60;;
31716;SDS011;18301;51.076;17.046;2023-06-22T18:15:15;7.88;;;6.80;;
31716;SDS011;18301;51.076;17.046;2023-06-22T18:20:17;7.45;;;6.75;;
31716;SDS011;18301;51.076;17.046;2023-06-22T18:25:20;15.70;;;7.60;;
31716;SDS011;18301;51.076;17.046;2023-06-22T18:30:22;8.98;;;7.30;;
31716;SDS011;18301;51.076;17.046;2023-06-22T18:35:25;8.98;;;6.60;;
31716;SDS011;18301;51.076;17.046;2023-06-22T18:40:27;6.93;;;5.68;;
31716;SDS011;18301;51.076;17.046;2023-06-22T18:45:29;8.35;;;6.60;;
31716;SDS011;18301;51.076;17.046;2023-06-22T18:50:40;9.00;;;5.68;;
31716;SDS011;18301;51.076;17.046;2023-06-22T18:55:44;7.18;;;5.20;;
31716;SDS011;18301;51.076;17.046;2023-06-22T19:00:50;9.63;;;6.10;;
31716;SDS011;18301;51.076;17.046;2023-06-22T19:05:53;7.13;;;5.40;;
31716;SDS011;18301;51.076;17.046;2023-06-22T19:11:10;6.15;;;5.10;;
31716;SDS011;18301;51.076;17.046;2023-06-22T19:16:12;5.15;;;4.65;;
31716;SDS011;18301;51.076;17.046;2023-06-22T19:21:21;6.22;;;5.30;;
31716;SDS011;18301;51.076;17.046;2023-06-22T19:26:23;6.55;;;5.00;;
31716;SDS011;18301;51.076;17.046;2023-06-22T19:31:25;7.82;;;4.93;;
31716;SDS011;18301;51.076;17.046;2023-06-22T19:36:32;5.50;;;4.75;;
31716;SDS011;18301;51.076;17.046;2023-06-22T19:41:35;7.55;;;5.40;;
31716;SDS011;18301;51.076;17.046;2023-06-22T19:46:36;6.22;;;4.80;;
31716;SDS011;18301;51.076;17.046;2023-06-22T19:51:38;6.60;;;5.47;;
31716;SDS011;18301;51.076;17.046;2023-06-22T19:56:40;6.57;;;5.07;;
31716;SDS011;18301;51.076;17.046;2023-06-22T20:01:41;6.07;;;4.95;;
31716;SDS011;18301;51.076;17.046;2023-06-22T20:07:01;6.13;;;4.85;;
31716;SDS011;18301;51.076;17.046;2023-06-22T20:12:03;8.30;;;5.10;;
31716;SDS011;18301;51.076;17.046;2023-06-22T20:17:05;7.45;;;5.32;;
31716;SDS011;18301;51.076;17.046;2023-06-22T20:22:10;7.32;;;5.30;;
31716;SDS011;18301;51.076;17.046;2023-06-22T20:27:12;7.47;;;5.47;;
31716;SDS011;18301;51.076;17.046;2023-06-22T20:32:14;7.40;;;5.35;;
31716;SDS011;18301;51.076;17.046;2023-06-22T20:37:16;8.35;;;4.97;;
31716;SDS011;18301;51.076;17.046;2023-06-22T20:42:22;8.68;;;5.32;;
31716;SDS011;18301;51.076;17.046;2023-06-22T20:47:24;6.03;;;4.95;;
31716;SDS011;18301;51.076;17.046;2023-06-22T20:52:26;6.75;;;5.45;;
31716;SDS011;18301;51.076;17.046;2023-06-22T20:57:27;6.82;;;5.20;;
31716;SDS011;18301;51.076;17.046;2023-06-22T21:02:29;5.85;;;5.20;;
31716;SDS011;18301;51.076;17.046;2023-06-22T21:07:30;5.97;;;5.30;;
31716;SDS011;18301;51.076;17.046;2023-06-22T21:12:32;7.13;;;5.65;;
31716;SDS011;18301;51.076;17.046;2023-06-22T21:17:36;8.32;;;5.13;;
31716;SDS011;18301;51.076;17.046;2023-06-22T21:22:40;7.45;;;5.78;;
31716;SDS011;18301;51.076;17.046;2023-06-22T21:27:42;7.90;;;5.00;;
31716;SDS011;18301;51.076;17.046;2023-06-22T21:32:44;9.32;;;5.95;;
31716;SDS011;18301;51.076;17.046;2023-06-22T21:37:46;8.40;;;5.88;;
31716;SDS011;18301;51.076;17.046;2023-06-22T21:42:48;5.95;;;5.30;;
31716;SDS011;18301;51.076;17.046;2023-06-22T21:47:51;5.85;;;4.95;;
31716;SDS011;18301;51.076;17.046;2023-06-22T21:52:52;6.25;;;5.05;;
31716;SDS011;18301;51.076;17.046;2023-06-22T21:57:54;7.13;;;5.10;;
31716;SDS011;18301;51.076;17.046;2023-06-22T22:02:55;7.50;;;5.00;;
31716;SDS011;18301;51.076;17.046;2023-06-22T22:07:57;8.15;;;4.35;;
31716;SDS011;18301;51.076;17.046;2023-06-22T22:12:58;6.70;;;5.13;;
31716;SDS011;18301;51.076;17.046;2023-06-22T22:18:00;5.25;;;4.35;;
31716;SDS011;18301;51.076;17.046;2023-06-22T22:23:05;5.20;;;4.43;;
31716;SDS011;18301;51.076;17.046;2023-06-22T22:28:08;7.03;;;4.93;;
31716;SDS011;18301;51.076;17.046;2023-06-22T22:33:09;7.05;;;5.28;;
31716;SDS011;18301;51.076;17.046;2023-06-22T22:38:11;6.75;;;4.63;;
31716;SDS011;18301;51.076;17.046;2023-06-22T22:43:13;5.72;;;4.40;;
31716;SDS011;18301;51.076;17.046;2023-06-22T22:48:14;6.20;;;5.00;;
31716;SDS011;18301;51.076;17.046;2023-06-22T22:53:16;5.53;;;4.60;;
31716;SDS011;18301;51.076;17.046;2023-06-22T22:58:18;5.40;;;4.72;;
31716;SDS011;18301;51.076;17.046;2023-06-22T23:03:20;6.30;;;4.82;;
31716;SDS011;18301;51.076;17.046;2023-06-22T23:08:22;5.00;;;4.35;;
31716;SDS011;18301;51.076;17.046;2023-06-22T23:13:24;4.95;;;4.40;;
31716;SDS011;18301;51.076;17.046;2023-06-22T23:18:28;7.47;;;5.10;;
31716;SDS011;18301;51.076;17.046;2023-06-22T23:23:32;5.03;;;4.13;;
31716;SDS011;18301;51.076;17.046;2023-06-22T23:28:33;7.93;;;4.65;;
31716;SDS011;18301;51.076;17.046;2023-06-22T23:33:38;5.82;;;4.65;;
31716;SDS011;18301;51.076;17.046;2023-06-22T23:38:41;6.75;;;5.15;;
31716;SDS011;18301;51.076;17.046;2023-06-22T23:43:42;6.57;;;5.00;;
31716;SDS011;18301;51.076;17.046;2023-06-22T23:48:44;5.90;;;5.00;;
31716;SDS011;18301;51.076;17.046;2023-06-22T23:53:46;5.85;;;5.07;;
31716;SDS011;18301;51.076;17.046;2023-06-22T23:58:50;6.95;;;5.47;;
